Terminal Aerodrome Forecast
Issued by NWS

Home | Current Version | Previous Version | Text Only | Print | Product List | Glossary Off
Versions: 1 2 3 4 5 6 7 8 9 10 11 12 13 14 15 16 17 18 19 20 21 22 23

556
FTUS44 KTSA 061006 AAC
TAFMLC
TAF AMD
KMLC 061006Z 0610/0706 34006KT P6SM BKN006 OVC011
     FM061200 35006KT P6SM OVC015
     FM061600 36011KT P6SM BKN025
     FM061800 01011KT P6SM BKN250=

USA.gov is the U.S. government's official web portal to all federal, state and local government web resources and services.